Flight Track Log - Related Links

Times and Time Zones

All times are in EDT time to prevent confusion due to time zone crossing. See the ASQ5999 flight status page for this flight to view local times or setup timezone preferences in your user account.

Time Position Orientation Groundspeed Altitude Reporting Facility
EDT Latitude Longitude Course Direction KTS MPH feet Rate Location/Type
Thu 08:22:34 PM 39.7000 -86.3167 255° West 155 178 1,500  Level Indianapolis TRACON
Thu 08:23:52 PM 39.6500 -86.3833 226° Southwest 228 262 3,800 2,318 Climbing Indianapolis TRACON
Thu 08:24:46 PM 39.6333 -86.4500 252° West 247 284 6,600 2,831 Climbing Indianapolis TRACON
Thu 08:25:21 PM 39.6394 -86.4814 284° West 226 260 8,000 2,412 Climbing Indianapolis Center
Thu 08:26:00 PM 39.5942 -86.7796 256° West  Level FlightAware Approximate
Thu 08:26:23 PM 39.6514 -86.5608 281° West 230 265 10,500  Level Indianapolis Center
Thu 08:27:00 PM 39.5689 -86.9057 255° West  Level FlightAware Approximate
Thu 08:27:24 PM 39.6403 -86.6700 263° West 248 285 12,600  Level Indianapolis Center
Thu 08:28:26 PM 39.6389 -86.7703 269° West 264 304 14,100 1,452 Climbing Indianapolis Center
Thu 08:29:28 PM 39.6372 -86.8786 269° West 283 326 15,600 1,415 Climbing Indianapolis Center
Thu 08:30:29 PM 39.6350 -86.9897 269° West 298 343 17,000 1,512 Climbing Indianapolis Center
Thu 08:31:31 PM 39.6331 -87.1050 269° West 310 357 18,700 1,924 Climbing Indianapolis Center
Thu 08:34:26 PM 39.6264 -87.4269 270° West 293 337 24,600 1,916 Climbing Kansas City Center
Thu 08:35:29 PM 39.6242 -87.5297 268° West 289 333 26,300 1,667 Climbing Kansas City Center
Thu 08:36:32 PM 39.6206 -87.6286 267° West 280 322 28,100 1,597 Climbing Kansas City Center
Thu 08:37:33 PM 39.6186 -87.7258 269° West 276 318 29,600 1,523 Climbing Kansas City Center
Thu 08:38:42 PM 39.6178 -87.8306 269° West 262 302 31,400 1,237 Climbing Indianapolis Center
Thu 08:39:44 PM 39.6144 -87.9219 267° West 257 296 32,300 829 Climbing Indianapolis Center
Thu 08:40:00 PM 39.6001 -88.2467 270° West  Level FlightAware Approximate
Thu 08:40:45 PM 39.6122 -88.0181 268° West 261 300 33,100  Level Indianapolis Center
Thu 08:41:47 PM 39.6097 -88.1153 268° West 267 307 33,900 513 Climbing Indianapolis Center
Thu 08:42:42 PM 39.6061 -88.2242 268° West 277 319 34,100 667 Climbing Kansas City Center
Thu 08:43:44 PM 39.6028 -88.3292 268° West 285 328 35,200 864 Climbing Kansas City Center
Thu 08:44:47 PM 39.6156 -88.4283 280° West 285 328 35,900 387 Climbing Kansas City Center
Thu 08:45:48 PM 39.6314 -88.5250 282° West 277 319 36,000 50 Climbing Kansas City Center
Thu 08:46:48 PM 39.6481 -88.6469 280° West 304 350 36,000  Level Kansas City Center
Thu 08:47:52 PM 39.6633 -88.7606 280° West 316 364 36,000  Level Kansas City Center
Thu 08:48:52 PM 39.6803 -88.8811 280° West 331 381 36,000  Level Kansas City Center
Thu 08:49:53 PM 39.6986 -89.0047 281° West 342 394 36,000  Level Kansas City Center
Thu 08:50:57 PM 39.7150 -89.1322 280° West 351 404 36,000  Level Kansas City Center
Thu 08:51:58 PM 39.7322 -89.2600 280° West 354 407 36,000  Level Kansas City Center
Thu 08:52:59 PM 39.7492 -89.3817 280° West 352 405 36,000  Level Kansas City Center
Thu 08:54:02 PM 39.7689 -89.5286 280° West 346 398 36,000  Level Kansas City Center
Thu 08:55:03 PM 39.7853 -89.6506 280° West 346 398 36,000  Level Kansas City Center
Thu 08:56:06 PM 39.8017 -89.7719 280° West 345 397 36,000  Level Kansas City Center
Thu 08:57:07 PM 39.8169 -89.8914 279° West 339 390 36,000  Level Kansas City Center
Thu 08:58:08 PM 39.8317 -90.0111 279° West 339 390 36,000  Level Kansas City Center
Thu 08:59:12 PM 39.8475 -90.1317 280° West 339 390 36,000  Level Kansas City Center
Thu 09:00:13 PM 39.8628 -90.2517 279° West 338 389 36,000  Level Kansas City Center
Thu 09:01:14 PM 39.8783 -90.3714 280° West 338 389 36,000  Level Kansas City Center
Thu 09:02:17 PM 39.8964 -90.5153 279° West 338 389 36,000  Level Kansas City Center
Thu 09:03:18 PM 39.9108 -90.6344 279° West 336 387 36,000  Level Kansas City Center
Thu 09:04:19 PM 39.9244 -90.7536 279° West 336 387 36,000  Level Kansas City Center
Thu 09:05:20 PM 39.9392 -90.8739 279° West 336 387 36,000  Level Kansas City Center
Thu 09:06:24 PM 39.9539 -90.9886 280° West 336 387 36,000  Level Kansas City Center
Thu 09:07:25 PM 39.9672 -91.1075 278° West 336 387 36,000  Level Kansas City Center
Thu 09:08:26 PM 39.9844 -91.2486 279° West 335 386 36,000  Level Kansas City Center
Thu 09:09:29 PM 39.9983 -91.3675 279° West 335 386 36,000  Level Kansas City Center
Thu 09:10:30 PM 40.0122 -91.4861 279° West 335 386 36,000  Level Kansas City Center
Thu 09:11:32 PM 40.0261 -91.6047 279° West 335 386 36,000  Level Kansas City Center
Thu 09:12:35 PM 40.0397 -91.7236 279° West 335 386 36,000  Level Kansas City Center
Thu 09:13:36 PM 40.0550 -91.8681 278° West 335 386 36,000  Level Kansas City Center
Thu 09:14:37 PM 40.0692 -91.9889 279° West 335 386 36,000  Level Kansas City Center
Thu 09:15:39 PM 40.0828 -92.1092 278° West 335 386 36,000  Level Kansas City Center
Thu 09:16:42 PM 40.0961 -92.2300 278° West 336 387 36,000  Level Kansas City Center
Thu 09:17:44 PM 40.1103 -92.3553 278° West 336 387 36,000  Level Kansas City Center
Thu 09:18:46 PM 40.1250 -92.4917 278° West 337 388 36,000  Level Kansas City Center
Thu 09:19:48 PM 40.1411 -92.6081 280° West 338 389 36,000  Level Kansas City Center
Thu 09:20:49 PM 40.1842 -92.7333 294° West 338 389 36,000  Level Kansas City Center
Thu 09:21:52 PM 40.2208 -92.8414 294° West 338 389 36,000  Level Kansas City Center
Thu 09:22:53 PM 40.2575 -92.9497 294° West 338 389 36,000  Level Kansas City Center
Thu 09:23:55 PM 40.2992 -93.0728 294° West 339 390 36,000  Level Kansas City Center
Thu 09:24:55 PM 40.3372 -93.1856 294° West 339 390 36,000  Level Kansas City Center
Thu 09:25:59 PM 40.3744 -93.2975 294° West 339 390 36,000  Level Kansas City Center
Thu 09:26:59 PM 40.4122 -93.4094 294° West 339 390 36,000  Level Kansas City Center
Thu 09:28:03 PM 40.4572 -93.5433 294° West 339 390 36,000  Level Kansas City Center
Thu 09:28:51 PM 40.4847 -93.6319 292° West 337 388 36,000  Level Minneapolis Center
Thu 09:29:53 PM 40.5217 -93.7439 293° West 337 388 36,000  Level Minneapolis Center
Thu 09:30:55 PM 40.5600 -93.8558 294° West 337 388 36,000  Level Minneapolis Center
Thu 09:31:56 PM 40.5967 -93.9681 293° West 337 388 36,000  Level Minneapolis Center
Thu 09:32:58 PM 40.6408 -94.1031 293° West 337 388 36,000  Level Minneapolis Center
Thu 09:34:00 PM 40.6786 -94.2158 294° West 337 388 36,000  Level Minneapolis Center
Thu 09:35:02 PM 40.7147 -94.3289 293° West 337 388 36,000  Level Minneapolis Center
Thu 09:36:03 PM 40.7528 -94.4417 294° West 337 388 36,000  Level Minneapolis Center
Thu 09:37:05 PM 40.7953 -94.5697 294° West 338 389 36,000  Level Minneapolis Center
Thu 09:38:07 PM 40.8319 -94.6847 293° West 338 389 36,000  Level Minneapolis Center
Thu 09:39:08 PM 40.8703 -94.7997 294° West 338 389 36,000  Level Minneapolis Center
Thu 09:40:10 PM 40.9072 -94.9158 293° West 341 392 36,000  Level Minneapolis Center
Thu 09:41:12 PM 40.9447 -95.0328 293° West 341 392 36,000  Level Minneapolis Center
Thu 09:42:13 PM 40.9819 -95.1489 293° West 342 394 36,000  Level Minneapolis Center
Thu 09:43:15 PM 41.0200 -95.2667 293° West 343 395 36,000  Level Minneapolis Center
Thu 09:44:16 PM 41.0567 -95.3850 292° West 345 397 36,000  Level Minneapolis Center
Thu 09:45:18 PM 41.1011 -95.5258 293° West 345 397 36,000  Level Minneapolis Center
Thu 09:46:20 PM 41.1342 -95.6342 292° West 345 397 36,000  Level Minneapolis Center
Thu 09:47:21 PM 41.1694 -95.7503 292° West 343 395 36,000  Level Minneapolis Center
Thu 09:48:23 PM 41.1794 -95.8783 276° West 348 400 36,000  Level Minneapolis Center
Thu 09:49:24 PM 41.1922 -96.0058 278° West 350 403 36,000  Level Minneapolis Center
Thu 09:50:26 PM 41.2053 -96.1575 277° West 348 400 36,000  Level Minneapolis Center
Thu 09:51:27 PM 41.2158 -96.2847 276° West 344 396 36,000  Level Minneapolis Center
Thu 09:52:29 PM 41.2264 -96.4003 277° West 344 396 36,000  Level Minneapolis Center
Thu 09:53:30 PM 41.2233 -96.5261 268° West 343 395 36,000  Level Minneapolis Center
Thu 09:54:32 PM 41.2108 -96.6517 263° West 343 395 36,000  Level Minneapolis Center
Thu 09:55:33 PM 41.2000 -96.7758 263° West 342 394 36,000  Level Minneapolis Center
Thu 09:56:35 PM 41.1889 -96.9017 263° West 342 394 36,000  Level Minneapolis Center
Thu 09:57:36 PM 41.1758 -97.0483 263° West 335 386 36,000  Level Minneapolis Center
Thu 09:58:37 PM 41.1633 -97.1714 262° West 334 384 36,000  Level Minneapolis Center
Thu 09:59:38 PM 41.1522 -97.2931 263° West 334 384 36,000  Level Minneapolis Center
Thu 10:00:40 PM 41.1400 -97.4242 263° West 334 384 36,000  Level Minneapolis Center
Thu 10:01:41 PM 41.1286 -97.5458 263° West 334 384 36,000  Level Minneapolis Center
Thu 10:02:42 PM 41.1175 -97.6681 263° West 334 384 36,000  Level Minneapolis Center
Thu 10:03:44 PM 41.1047 -97.7900 262° West 334 384 36,000  Level Minneapolis Center
Thu 10:05:52 PM 41.0833 -98.0094 263° West 334 384 36,000  Level Denver Center
Thu 10:06:47 PM 41.0689 -98.1564 263° West 334 384 36,000  Level Minneapolis Center
Thu 10:07:49 PM 41.0558 -98.2775 262° West 334 384 36,000  Level Minneapolis Center
Thu 10:08:50 PM 41.0436 -98.4014 263° West 334 384 36,000  Level Minneapolis Center
Thu 10:09:51 PM 41.0292 -98.5375 262° West 334 384 36,000  Level Minneapolis Center
Thu 10:10:52 PM 41.0164 -98.6617 262° West 336 387 36,000  Level Minneapolis Center
Thu 10:11:54 PM 41.0028 -98.7853 262° West 337 388 36,000  Level Minneapolis Center
Thu 10:12:55 PM 40.9894 -98.9094 262° West 338 389 36,000  Level Minneapolis Center
Thu 10:13:56 PM 40.9728 -99.0347 260° West 340 391 36,000  Level Minneapolis Center
Thu 10:14:57 PM 40.9561 -99.1542 260° West 341 392 36,000  Level Minneapolis Center
Thu 10:15:35 PM 40.9489 -99.2044 259° West 342 394 36,000  Level Denver Center
Thu 10:16:37 PM 40.9244 -99.3806 260° West 344 396 36,000  Level Denver Center
Thu 10:17:39 PM 40.9072 -99.5058 260° West 344 396 36,000  Level Denver Center
Thu 10:18:41 PM 40.8889 -99.6308 259° West 345 397 36,000  Level Denver Center
Thu 10:19:43 PM 40.8708 -99.7556 259° West 345 397 36,000  Level Denver Center
Thu 10:20:45 PM 40.8514 -99.8906 259° West 345 397 36,000  Level Denver Center
Thu 10:21:47 PM 40.8328 -100.0106 258° West 346 398 36,000  Level Denver Center
Thu 10:22:49 PM 40.8125 -100.1494 259° West 346 398 36,000  Level Denver Center
Thu 10:23:51 PM 40.7950 -100.2694 259° West 348 400 36,000  Level Denver Center
Thu 10:24:53 PM 40.7750 -100.4086 259° West 345 397 36,000  Level Denver Center
Thu 10:25:55 PM 40.7569 -100.5258 259° West 344 396 36,000  Level Denver Center
Thu 10:26:57 PM 40.7356 -100.6656 259° West 344 396 36,000  Level Denver Center
Thu 10:27:59 PM 40.7167 -100.7853 258° West 344 396 36,000  Level Denver Center
Thu 10:29:01 PM 40.6986 -100.9050 259° West 344 396 36,000  Level Denver Center
Thu 10:30:14 PM 40.6772 -101.0422 258° West 343 395 36,000  Level Denver Center
Thu 10:31:17 PM 40.6558 -101.1794 258° West 343 395 36,000  Level Denver Center
Thu 10:32:18 PM 40.6344 -101.3161 258° West 342 394 36,000  Level Denver Center
Thu 10:33:20 PM 40.6153 -101.4344 258° West 343 395 36,000  Level Denver Center
Thu 10:34:22 PM 40.5936 -101.5714 258° West 343 395 36,000  Level Denver Center
Thu 10:35:24 PM 40.5747 -101.6894 258° West 343 395 36,000  Level Denver Center
Thu 10:36:26 PM 40.5522 -101.8244 258° West 343 395 36,000  Level Denver Center
Thu 10:37:27 PM 40.5328 -101.9411 258° West 342 394 36,000  Level Denver Center
Thu 10:38:29 PM 40.5139 -102.0567 258° West 341 392 36,000  Level Denver Center
Thu 10:39:31 PM 40.4906 -102.1933 257° West 341 392 36,000  Level Denver Center
Thu 10:40:33 PM 40.4719 -102.3089 258° West 339 390 36,000 -537 Level Denver Center
Thu 10:41:34 PM 40.4486 -102.4428 257° West 338 389 34,900 -1,366 Descending Denver Center
Thu 10:42:36 PM 40.4286 -102.5550 257° West 336 387 33,200 -1,548 Descending Denver Center
Thu 10:43:38 PM 40.4094 -102.6700 258° West 339 390 31,700 -1,597 Descending Denver Center
Thu 10:44:40 PM 40.3831 -102.8222 257° West 355 409 29,900 -1,610 Descending Denver Center
Thu 10:45:41 PM 40.3597 -102.9553 257° West 372 428 28,400 -1,463 Descending Denver Center
Thu 10:46:43 PM 40.3350 -103.0942 257° West 389 448 26,900 -1,452 Descending Denver Center
Thu 10:47:45 PM 40.3106 -103.2344 257° West 394 453 25,400 -1,512 Descending Denver Center
Thu 10:48:46 PM 40.2867 -103.3719 257° West 391 450 23,800 -1,756 Descending Denver Center
Thu 10:49:48 PM 40.2619 -103.5094 257° West 390 449 21,800 -1,984 Descending Denver Center
Thu 10:50:50 PM 40.2375 -103.6472 257° West 390 449 19,700 -2,341 Descending Denver Center
Thu 10:51:51 PM 40.2103 -103.7983 257° West 362 417 17,000 -2,390 Descending Denver Center
Thu 10:52:53 PM 40.1858 -103.9203 255° West 348 400 14,800 -2,274 Descending Denver Center
Thu 10:53:55 PM 40.1642 -104.0392 257° West 341 392 12,300 -2,293 Descending Denver Center
Thu 10:54:56 PM 40.0756 -104.1089 211° Southwest 346 398 10,100 -1,122 Descending Denver Center
Thu 10:55:58 PM 39.9958 -104.1633 208° Southwest 326 375 10,000 -44 Descending Denver Center
Thu 10:57:11 PM 39.9289 -104.2036 205° Southwest 264 304 10,000  Level Denver Center
Thu 10:58:25 PM 39.8675 -104.2689 219° Southwest 245 282 10,000 -397 Level Denver Center
Thu 10:59:27 PM 39.8764 -104.3736 276° West 240 276 9,100 -1,086 Descending Denver Center
Thu 11:00:10 PM 39.8833 -104.4333 279° West 184 212 8,100 -1,049 Descending Denver TRACON
Thu 11:01:10 PM 39.8833 -104.4833 270° West 165 190 7,300 -800 Descending Denver TRACON
Thu 11:02:10 PM 39.8833 -104.5333 270° West 141 162 6,500 -750 Descending Denver TRACON
Thu 11:03:10 PM 39.8833 -104.5833 270° West 129 148 5,800 -497 Descending Denver TRACON
Thu 11:04:35 PM 39.8775 -104.6419 263° West 127 146 5,300 -353 Descending Denver Center

Login

Don't have an account? Register now (free) for customized features, flight alerts, and more!